createdAt,value
2018-04-12T03:32:34.618Z,11.20
2018-04-12T03:35:08.359Z,11.20
2018-04-12T03:37:42.227Z,11.30
2018-04-12T03:40:16.939Z,11.30
2018-04-12T03:42:50.738Z,11.30
2018-04-12T03:45:24.578Z,11.30
2018-04-12T03:47:59.125Z,11.40
2018-04-12T03:50:32.999Z,11.40
2018-04-12T03:53:06.744Z,11.40
2018-04-12T03:55:40.518Z,11.40
2018-04-12T03:58:35.070Z,11.40
2018-04-12T04:01:09.288Z,11.30
2018-04-12T04:03:43.036Z,11.30
2018-04-12T04:06:17.617Z,11.30
2018-04-12T04:08:52.936Z,11.30
2018-04-12T04:11:27.395Z,11.30
2018-04-12T04:14:01.950Z,11.30
2018-04-12T04:16:48.102Z,11.30
2018-04-12T04:22:25.023Z,11.40
2018-04-12T04:24:58.851Z,11.40
2018-04-12T04:27:33.409Z,11.40
2018-04-12T04:30:07.136Z,11.40
2018-04-12T04:32:40.951Z,11.40
2018-04-12T04:35:15.571Z,11.50
2018-04-12T04:37:49.287Z,11.50
2018-04-12T04:40:23.983Z,11.50
2018-04-12T04:42:57.870Z,11.50
2018-04-12T04:45:31.722Z,11.60
2018-04-12T04:48:05.554Z,11.60
2018-04-12T04:50:40.122Z,11.70
2018-04-12T04:53:13.994Z,11.60
2018-04-12T04:55:48.551Z,11.70
2018-04-12T04:58:22.527Z,11.70
2018-04-12T05:00:57.416Z,11.80
2018-04-12T05:03:31.099Z,11.80
2018-04-12T05:06:04.955Z,11.80
2018-04-12T05:08:38.720Z,11.70
2018-04-12T05:11:12.614Z,11.70
2018-04-12T05:13:47.473Z,11.60
2018-04-12T05:16:21.310Z,11.60
2018-04-12T05:18:55.236Z,11.70
2018-04-12T05:21:29.034Z,11.70
2018-04-12T05:24:02.855Z,11.70
2018-04-12T05:26:36.651Z,11.80
2018-04-12T05:29:11.087Z,11.80
2018-04-12T05:31:47.165Z,11.90
2018-04-12T05:34:21.506Z,11.90
2018-04-12T05:36:55.263Z,11.90
2018-04-12T05:39:29.158Z,12.00
2018-04-12T05:42:03.726Z,12.00
2018-04-12T05:44:38.374Z,12.10
2018-04-12T05:47:12.274Z,12.10
2018-04-12T05:49:46.094Z,12.20
2018-04-12T05:52:20.706Z,12.50
2018-04-12T05:54:54.456Z,12.50
2018-04-12T05:57:28.257Z,12.60
2018-04-12T06:00:02.131Z,12.70
2018-04-12T06:02:36.696Z,12.70
2018-04-12T06:05:13.045Z,12.80
2018-04-12T06:07:46.965Z,12.70
2018-04-12T06:10:21.761Z,12.70
2018-04-12T06:12:55.726Z,12.70
2018-04-12T06:15:29.854Z,12.70
2018-04-12T06:18:04.744Z,12.80
2018-04-12T06:20:38.512Z,12.80
2018-04-12T06:23:13.114Z,12.90
2018-04-12T06:25:47.710Z,12.90
2018-04-12T06:31:32.573Z,13.00
2018-04-12T06:34:07.762Z,13.00
2018-04-12T06:36:41.591Z,13.10
2018-04-12T06:39:16.210Z,13.30
2018-04-12T06:41:52.213Z,13.40
2018-04-12T06:44:28.170Z,13.40
2018-04-12T06:47:02.019Z,13.40
2018-04-12T06:49:35.771Z,13.40
2018-04-12T06:52:10.227Z,13.40
2018-04-12T06:54:44.421Z,13.40
2018-04-12T06:57:18.984Z,13.50
2018-04-12T06:59:52.782Z,13.50
2018-04-12T07:02:26.659Z,13.60
2018-04-12T07:05:01.203Z,13.90
2018-04-12T07:07:34.979Z,13.90
2018-04-12T07:10:08.758Z,13.90
2018-04-12T07:12:42.837Z,13.90
2018-04-12T07:15:16.667Z,14.00
2018-04-12T07:17:50.487Z,14.10
2018-04-12T07:20:25.274Z,14.30
2018-04-12T07:22:59.293Z,14.20
2018-04-12T07:25:33.064Z,14.30
2018-04-12T07:28:06.992Z,14.40
2018-04-12T07:30:40.787Z,14.50
2018-04-12T07:33:15.339Z,14.90
2018-04-12T07:35:49.979Z,15.00
2018-04-12T07:38:23.803Z,15.00
2018-04-12T07:40:58.410Z,15.10
2018-04-12T07:43:32.114Z,15.10
2018-04-12T07:46:05.954Z,15.20
2018-04-12T07:48:39.685Z,15.40
2018-04-12T07:51:14.350Z,16.10
2018-04-12T07:53:48.156Z,16.00
2018-04-12T07:56:26.757Z,16.50
2018-04-12T07:59:00.602Z,16.40
2018-04-12T08:01:34.470Z,16.60
2018-04-12T08:04:08.283Z,16.80
2018-04-12T08:06:42.311Z,17.00
2018-04-12T08:09:16.230Z,17.10
2018-04-12T08:11:50.330Z,17.30
2018-04-12T08:14:24.127Z,17.50
2018-04-12T08:16:58.016Z,17.50
2018-04-12T08:19:31.746Z,17.40
2018-04-12T08:24:30.595Z,17.20
2018-04-12T08:27:04.451Z,17.10
2018-04-12T08:29:38.275Z,16.80
2018-04-12T08:32:12.134Z,16.70
2018-04-12T08:34:45.975Z,17.00
2018-04-12T08:37:19.801Z,17.30
2018-04-12T08:39:53.512Z,17.10
2018-04-12T08:42:27.383Z,17.10
2018-04-12T08:45:01.951Z,17.20
2018-04-12T08:47:35.599Z,17.20
2018-04-12T08:50:09.475Z,17.00
2018-04-12T08:52:45.147Z,17.40
2018-04-12T08:55:19.039Z,17.40
2018-04-12T08:57:52.945Z,17.60
2018-04-12T09:00:26.821Z,17.70
2018-04-12T09:15:56.936Z,18.40
2018-04-12T09:18:31.416Z,18.50
2018-04-12T09:21:06.385Z,18.50
2018-04-12T09:23:40.249Z,18.50
2018-04-12T09:26:14.301Z,19.00
2018-04-12T09:28:48.002Z,19.20
2018-04-12T09:31:22.519Z,19.50
2018-04-12T09:33:56.222Z,19.50
2018-04-12T09:36:30.038Z,20.00
2018-04-12T09:39:03.862Z,19.80
2018-04-12T09:41:37.730Z,20.10
2018-04-12T09:44:11.577Z,20.10
2018-04-12T09:46:45.456Z,20.20
2018-04-12T09:49:20.095Z,20.60
2018-04-12T09:51:53.944Z,20.50
2018-04-12T09:54:28.623Z,20.50
2018-04-12T09:57:02.438Z,20.50
2018-04-12T09:59:36.266Z,20.40
2018-04-12T10:02:10.938Z,20.00
2018-04-12T10:04:51.254Z,19.80
2018-04-12T10:07:30.932Z,19.80
2018-04-12T10:10:05.595Z,20.40
2018-04-12T10:12:40.415Z,20.60
2018-04-12T10:15:14.106Z,20.60
2018-04-12T10:17:49.650Z,20.80
2018-04-12T10:20:24.106Z,21.20
2018-04-12T10:22:58.681Z,21.90
2018-04-12T10:25:32.570Z,21.90
2018-04-12T10:28:06.460Z,21.90
2018-04-12T10:30:40.948Z,22.30
2018-04-12T10:33:15.733Z,21.70
2018-04-12T10:35:50.212Z,20.90
2018-04-12T10:38:24.853Z,21.00
2018-04-12T10:40:58.615Z,21.00
2018-04-12T10:43:35.192Z,21.20
2018-04-12T10:46:09.061Z,21.20
2018-04-12T10:48:42.930Z,21.40
2018-04-12T10:51:16.653Z,21.60
2018-04-12T10:53:50.495Z,21.70
2018-04-12T10:56:25.062Z,22.40
2018-04-12T10:58:59.659Z,22.60
2018-04-12T11:01:33.481Z,22.60
2018-04-12T11:04:07.058Z,22.50
2018-04-12T11:06:41.209Z,22.40
2018-04-12T11:09:14.908Z,22.70
2018-04-12T11:11:48.826Z,22.80
2018-04-12T11:14:25.237Z,22.70
2018-04-12T11:16:58.979Z,22.70
2018-04-12T11:19:32.723Z,23.20
2018-04-12T11:22:07.231Z,22.70
2018-04-12T11:24:41.744Z,22.40
2018-04-12T11:27:15.563Z,22.40
2018-04-12T11:29:49.467Z,22.40
2018-04-12T11:32:23.368Z,22.60
2018-04-12T11:34:57.210Z,22.40
2018-04-12T11:37:31.662Z,22.70
2018-04-12T11:40:07.227Z,23.00
2018-04-12T11:42:41.859Z,22.90
2018-04-12T11:45:16.740Z,23.30
2018-04-12T11:47:51.194Z,23.30
2018-04-12T11:50:25.029Z,23.20
2018-04-12T11:52:58.807Z,22.90
2018-04-12T11:55:32.709Z,23.00
2018-04-12T11:58:06.503Z,22.60
2018-04-12T12:00:41.353Z,22.40
2018-04-12T12:03:15.040Z,22.40
2018-04-12T12:05:50.508Z,22.90
2018-04-12T12:08:25.216Z,22.80
2018-04-12T12:10:59.239Z,23.00
2018-04-12T12:13:33.759Z,22.50
2018-04-12T12:16:07.631Z,22.50
2018-04-12T12:18:42.382Z,22.40
2018-04-12T12:21:16.939Z,22.20
2018-04-12T12:23:50.791Z,22.20
2018-04-12T12:26:24.494Z,22.30
2018-04-12T12:28:58.943Z,22.40
2018-04-12T12:31:32.824Z,22.40
2018-04-12T12:34:07.367Z,22.40
2018-04-12T12:36:41.265Z,22.40
2018-04-12T12:39:15.805Z,22.30
2018-04-12T12:41:49.629Z,22.20
2018-04-12T12:44:23.460Z,22.30
2018-04-12T12:46:57.269Z,22.10
2018-04-12T12:49:30.967Z,21.70
2018-04-12T12:52:06.486Z,21.80
2018-04-12T12:54:41.004Z,21.70
2018-04-12T12:57:15.054Z,21.70
2018-04-12T12:59:48.674Z,21.70
2018-04-12T13:02:22.493Z,21.80
2018-04-12T13:04:56.269Z,22.00
2018-04-12T13:07:30.176Z,22.10
2018-04-12T13:10:04.671Z,22.20
2018-04-12T13:12:39.307Z,22.30
2018-04-12T13:15:12.943Z,22.20
2018-04-12T13:17:46.815Z,22.40
2018-04-12T13:20:20.563Z,22.40
2018-04-12T13:22:55.099Z,22.40
2018-04-12T13:25:28.869Z,22.40
2018-04-12T13:28:02.634Z,22.50
2018-04-12T13:30:36.413Z,22.50
2018-04-12T13:33:10.265Z,22.70
2018-04-12T13:35:44.007Z,22.80
2018-04-12T13:38:17.905Z,22.80
2018-04-12T13:40:51.682Z,22.60
2018-04-12T13:43:29.039Z,22.70
2018-04-12T13:46:02.862Z,22.60
2018-04-12T13:48:38.378Z,22.70
2018-04-12T13:51:12.272Z,22.70
2018-04-12T13:53:46.039Z,22.50
2018-04-12T13:56:21.667Z,22.60
2018-04-12T13:58:56.451Z,22.70
2018-04-12T14:01:31.664Z,22.70
2018-04-12T14:04:05.392Z,22.70
2018-04-12T14:06:39.962Z,22.70
2018-04-12T14:09:14.151Z,22.70
2018-04-12T14:11:48.820Z,22.50
2018-04-12T14:14:22.650Z,22.40
2018-04-12T14:16:57.354Z,22.40
2018-04-12T14:19:31.330Z,22.40
2018-04-12T14:22:06.009Z,22.50
2018-04-12T14:24:39.968Z,22.40
2018-04-12T14:27:14.624Z,22.20
2018-04-12T14:29:48.463Z,22.20
2018-04-12T14:32:23.380Z,22.00
2018-04-12T14:34:58.003Z,22.00
2018-04-12T14:37:32.583Z,22.00
2018-04-12T14:40:06.470Z,22.00
2018-04-12T14:42:41.163Z,21.70
2018-04-12T14:45:14.948Z,21.70
2018-04-12T14:47:48.758Z,21.70
2018-04-12T14:50:23.355Z,21.90
2018-04-12T14:52:57.801Z,21.90
2018-04-12T14:55:31.701Z,21.80
2018-04-12T14:58:05.543Z,22.10
2018-04-12T15:00:40.156Z,21.80
2018-04-12T15:03:16.912Z,21.80
2018-04-12T15:05:50.773Z,21.70
2018-04-12T15:08:25.257Z,22.10
2018-04-12T15:10:58.979Z,22.10
2018-04-12T15:13:32.822Z,22.00
2018-04-12T15:16:06.801Z,21.90
2018-04-12T15:18:40.578Z,22.00
2018-04-12T15:21:14.498Z,21.90
2018-04-12T15:23:48.279Z,21.80
2018-04-12T15:26:23.164Z,21.80
2018-04-12T15:28:56.980Z,21.80
2018-04-12T15:31:30.903Z,22.00
2018-04-12T15:34:05.455Z,22.00
2018-04-12T15:36:39.351Z,22.00
2018-04-12T15:39:13.772Z,22.00
2018-04-12T15:41:47.482Z,22.00
2018-04-12T15:44:21.314Z,22.00
2018-04-12T15:46:55.949Z,21.80
2018-04-12T15:49:31.149Z,21.80
2018-04-12T15:52:05.036Z,21.80
2018-04-12T15:54:38.838Z,21.90
2018-04-12T15:57:12.729Z,21.80
2018-04-12T15:59:47.298Z,21.80
2018-04-12T16:02:21.051Z,21.80
2018-04-12T16:04:54.822Z,21.80
2018-04-12T16:07:28.714Z,21.70
2018-04-12T16:10:02.594Z,21.60
2018-04-12T16:12:37.053Z,21.20
2018-04-12T16:15:10.835Z,21.20
2018-04-12T16:17:45.412Z,20.90
2018-04-12T16:20:19.180Z,20.90
2018-04-12T16:22:52.998Z,20.80
2018-04-12T16:25:26.884Z,20.70
2018-04-12T16:28:01.539Z,20.70
2018-04-12T16:30:36.160Z,20.70
2018-04-12T16:33:10.035Z,20.60
2018-04-12T16:35:44.673Z,20.70
2018-04-12T16:38:18.543Z,20.70
2018-04-12T16:40:52.271Z,20.70
2018-04-12T16:43:26.082Z,20.70
2018-04-12T16:46:00.620Z,20.70
2018-04-12T16:48:35.562Z,20.80
2018-04-12T16:51:10.794Z,20.90
2018-04-12T16:53:44.526Z,20.90
2018-04-12T16:56:19.132Z,20.90
2018-04-12T16:58:52.997Z,20.90
2018-04-12T17:01:26.791Z,20.80
2018-04-12T17:04:00.587Z,20.70
2018-04-12T17:06:34.502Z,20.70
2018-04-12T17:09:08.155Z,20.50
2018-04-12T17:11:41.931Z,20.50
2018-04-12T17:14:15.864Z,20.40
2018-04-12T17:16:50.394Z,20.40
2018-04-12T17:19:25.035Z,20.30
2018-04-12T17:21:58.751Z,20.30
2018-04-12T17:24:33.462Z,20.30
2018-04-12T17:27:07.235Z,20.30
2018-04-12T17:29:41.911Z,20.30
2018-04-12T17:32:15.699Z,20.20
2018-04-12T17:34:53.795Z,20.20
2018-04-12T17:37:28.213Z,20.20
2018-04-12T17:40:02.867Z,20.10
2018-04-12T17:42:36.692Z,20.10
2018-04-12T17:45:11.328Z,20.00
2018-04-12T17:47:46.008Z,20.00
2018-04-12T17:50:21.655Z,19.90
2018-04-12T17:52:55.474Z,19.80
2018-04-12T17:55:29.176Z,19.70
2018-04-12T17:58:03.764Z,19.60
2018-04-12T18:00:37.604Z,19.50
2018-04-12T18:03:11.490Z,19.50
2018-04-12T18:05:45.375Z,19.40
2018-04-12T18:08:20.162Z,19.30
2018-04-12T18:10:54.067Z,19.30
2018-04-12T18:13:27.931Z,19.10
2018-04-12T18:16:01.755Z,19.10
2018-04-12T18:18:36.161Z,18.90
2018-04-12T18:21:10.823Z,18.80
2018-04-12T18:23:44.623Z,18.80
2018-04-12T18:26:18.539Z,18.60
2018-04-12T18:28:52.508Z,18.50
2018-04-12T18:31:26.403Z,18.30
2018-04-12T18:34:00.946Z,17.90
2018-04-12T18:36:35.055Z,17.90
2018-04-12T18:39:08.950Z,17.70
2018-04-12T18:41:42.811Z,17.60
2018-04-12T18:44:17.383Z,17.30
2018-04-12T18:46:52.037Z,17.20
2018-04-12T18:49:26.648Z,17.20
2018-04-12T18:52:01.198Z,16.90
2018-04-12T18:54:34.954Z,16.90
2018-04-12T18:57:09.838Z,16.70
2018-04-12T18:59:43.543Z,16.70
2018-04-12T19:02:17.667Z,16.80
2018-04-12T19:04:51.523Z,16.80
2018-04-12T19:07:26.099Z,16.90
2018-04-12T19:09:59.969Z,16.80
2018-04-12T19:12:34.926Z,16.50
2018-04-12T19:15:08.624Z,16.50
2018-04-12T19:17:42.522Z,16.50
2018-04-12T19:20:16.375Z,16.40
2018-04-12T19:22:50.139Z,16.30
2018-04-12T19:25:24.747Z,16.00
2018-04-12T19:28:02.483Z,16.00
2018-04-12T19:30:36.058Z,16.00
2018-04-12T19:33:10.191Z,15.90
2018-04-12T19:35:44.267Z,15.90
2018-04-12T19:38:18.095Z,15.80
2018-04-12T19:40:52.623Z,15.70
2018-04-12T19:43:29.100Z,15.60
2018-04-12T19:46:03.709Z,15.60
2018-04-12T19:48:37.343Z,15.60
2018-04-12T19:51:11.116Z,15.60
2018-04-12T19:53:44.978Z,15.60
2018-04-12T19:56:19.546Z,15.60
2018-04-12T19:58:54.346Z,15.50
2018-04-12T20:01:28.168Z,15.50
2018-04-12T20:04:01.921Z,15.50
2018-04-12T20:06:36.520Z,15.50
2018-04-12T20:09:10.286Z,15.50
2018-04-12T20:11:44.160Z,15.50
2018-04-12T20:14:19.091Z,15.40
2018-04-12T20:16:52.775Z,15.30
2018-04-12T20:19:27.533Z,15.20
2018-04-12T20:22:01.239Z,15.20
2018-04-12T20:24:35.845Z,15.10
2018-04-12T20:27:10.455Z,15.10
2018-04-12T20:29:44.150Z,15.10
2018-04-12T20:32:17.977Z,15.10
2018-04-12T20:34:51.836Z,15.00
2018-04-12T20:37:25.531Z,15.00
2018-04-12T20:39:59.267Z,14.90
2018-04-12T20:42:33.096Z,14.90
2018-04-12T20:45:06.878Z,14.90
2018-04-12T20:47:40.727Z,14.90
2018-04-12T20:50:14.563Z,14.90
2018-04-12T20:52:49.455Z,14.80
2018-04-12T20:55:23.312Z,14.80
2018-04-12T20:57:57.217Z,14.70
